sensor_id;sensor_type;location;lat;lon;timestamp;pressure;altitude;pressure_sealevel;temperature;humidity
71638;BME280;59485;43.542;-5.676;2023-04-30T00:01:42;102186.31;;;15.73;100.00
71638;BME280;59485;43.542;-5.676;2023-04-30T00:04:07;102230.06;;;15.85;100.00
71638;BME280;59485;43.542;-5.676;2023-04-30T00:06:33;102208.91;;;15.77;100.00
71638;BME280;59485;43.542;-5.676;2023-04-30T00:08:58;102215.13;;;15.79;100.00
71638;BME280;59485;43.542;-5.676;2023-04-30T00:11:24;102237.81;;;15.89;100.00
71638;BME280;59485;43.542;-5.676;2023-04-30T00:13:52;102210.44;;;15.65;100.00
71638;BME280;59485;43.542;-5.676;2023-04-30T00:16:18;102220.72;;;15.71;100.00
71638;BME280;59485;43.542;-5.676;2023-04-30T00:18:44;102240.09;;;15.71;100.00
71638;BME280;59485;43.542;-5.676;2023-04-30T00:21:10;102228.72;;;15.66;100.00
71638;BME280;59485;43.542;-5.676;2023-04-30T00:23:35;102231.13;;;15.69;100.00
71638;BME280;59485;43.542;-5.676;2023-04-30T00:26:01;102239.50;;;15.75;100.00
71638;BME280;59485;43.542;-5.676;2023-04-30T00:28:26;102228.44;;;15.61;100.00
71638;BME280;59485;43.542;-5.676;2023-04-30T00:30:52;102241.50;;;15.67;100.00
71638;BME280;59485;43.542;-5.676;2023-04-30T00:33:17;102232.16;;;15.68;100.00
71638;BME280;59485;43.542;-5.676;2023-04-30T00:35:43;102233.78;;;15.77;100.00
71638;BME280;59485;43.542;-5.676;2023-04-30T00:38:09;102202.25;;;15.49;100.00
71638;BME280;59485;43.542;-5.676;2023-04-30T00:40:35;102211.38;;;15.72;100.00
71638;BME280;59485;43.542;-5.676;2023-04-30T00:43:01;102196.97;;;15.62;100.00
71638;BME280;59485;43.542;-5.676;2023-04-30T00:45:27;102215.19;;;15.71;100.00
71638;BME280;59485;43.542;-5.676;2023-04-30T00:47:52;102196.63;;;15.80;100.00
71638;BME280;59485;43.542;-5.676;2023-04-30T00:50:18;102203.28;;;15.85;100.00
71638;BME280;59485;43.542;-5.676;2023-04-30T00:52:44;102201.09;;;15.81;100.00
71638;BME280;59485;43.542;-5.676;2023-04-30T00:55:11;102211.69;;;15.92;100.00
71638;BME280;59485;43.542;-5.676;2023-04-30T00:57:37;102204.53;;;15.97;100.00
71638;BME280;59485;43.542;-5.676;2023-04-30T01:00:03;102207.97;;;15.99;100.00
71638;BME280;59485;43.542;-5.676;2023-04-30T01:02:30;102191.47;;;15.91;100.00
71638;BME280;59485;43.542;-5.676;2023-04-30T01:04:56;102186.31;;;15.88;100.00
71638;BME280;59485;43.542;-5.676;2023-04-30T01:07:23;102181.34;;;15.98;100.00
71638;BME280;59485;43.542;-5.676;2023-04-30T01:09:49;102178.97;;;15.95;100.00
71638;BME280;59485;43.542;-5.676;2023-04-30T01:12:34;102189.28;;;16.01;100.00
71638;BME280;59485;43.542;-5.676;2023-04-30T01:15:35;102191.56;;;15.98;100.00
71638;BME280;59485;43.542;-5.676;2023-04-30T01:18:33;102185.16;;;15.97;100.00
71638;BME280;59485;43.542;-5.676;2023-04-30T01:21:04;102180.13;;;15.86;100.00
71638;BME280;59485;43.542;-5.676;2023-04-30T01:28:59;102176.28;;;16.02;100.00
71638;BME280;59485;43.542;-5.676;2023-04-30T01:31:26;102151.50;;;15.94;100.00
71638;BME280;59485;43.542;-5.676;2023-04-30T01:33:52;102160.84;;;16.07;100.00
71638;BME280;59485;43.542;-5.676;2023-04-30T01:42:09;102153.03;;;15.82;100.00
71638;BME280;59485;43.542;-5.676;2023-04-30T01:47:40;102175.72;;;15.77;100.00
71638;BME280;59485;43.542;-5.676;2023-04-30T01:50:33;102170.97;;;15.86;100.00
71638;BME280;59485;43.542;-5.676;2023-04-30T01:53:02;102155.16;;;15.65;100.00
71638;BME280;59485;43.542;-5.676;2023-04-30T01:55:42;102174.13;;;15.83;100.00
71638;BME280;59485;43.542;-5.676;2023-04-30T01:58:14;102169.75;;;15.73;100.00
71638;BME280;59485;43.542;-5.676;2023-04-30T02:00:40;102143.41;;;15.63;100.00
71638;BME280;59485;43.542;-5.676;2023-04-30T02:03:06;102160.19;;;15.76;100.00
71638;BME280;59485;43.542;-5.676;2023-04-30T02:05:31;102161.53;;;15.80;100.00
71638;BME280;59485;43.542;-5.676;2023-04-30T02:07:57;102149.59;;;15.80;100.00
71638;BME280;59485;43.542;-5.676;2023-04-30T02:10:24;102170.00;;;15.79;100.00
71638;BME280;59485;43.542;-5.676;2023-04-30T02:12:51;102165.06;;;15.89;100.00
71638;BME280;59485;43.542;-5.676;2023-04-30T02:15:16;102152.75;;;15.62;100.00
71638;BME280;59485;43.542;-5.676;2023-04-30T02:17:42;102170.28;;;15.69;100.00
71638;BME280;59485;43.542;-5.676;2023-04-30T02:20:08;102166.38;;;15.63;100.00
71638;BME280;59485;43.542;-5.676;2023-04-30T02:22:34;102152.94;;;15.60;100.00
71638;BME280;59485;43.542;-5.676;2023-04-30T02:25:00;102156.28;;;15.70;100.00
71638;BME280;59485;43.542;-5.676;2023-04-30T02:27:25;102170.88;;;15.79;100.00
71638;BME280;59485;43.542;-5.676;2023-04-30T02:29:52;102174.69;;;15.78;100.00
71638;BME280;59485;43.542;-5.676;2023-04-30T02:32:18;102174.09;;;15.68;100.00
71638;BME280;59485;43.542;-5.676;2023-04-30T02:34:44;102170.97;;;15.71;100.00
71638;BME280;59485;43.542;-5.676;2023-04-30T02:37:09;102161.47;;;15.51;100.00
71638;BME280;59485;43.542;-5.676;2023-04-30T02:39:35;102170.66;;;15.66;100.00
71638;BME280;59485;43.542;-5.676;2023-04-30T02:42:01;102173.50;;;15.58;100.00
71638;BME280;59485;43.542;-5.676;2023-04-30T02:44:27;102180.13;;;15.57;100.00
71638;BME280;59485;43.542;-5.676;2023-04-30T02:46:53;102174.25;;;15.52;100.00
71638;BME280;59485;43.542;-5.676;2023-04-30T02:49:18;102179.91;;;15.58;100.00
71638;BME280;59485;43.542;-5.676;2023-04-30T02:51:44;102133.34;;;15.32;100.00
71638;BME280;59485;43.542;-5.676;2023-04-30T02:54:09;102178.41;;;15.70;100.00
71638;BME280;59485;43.542;-5.676;2023-04-30T02:56:35;102146.44;;;15.53;100.00
71638;BME280;59485;43.542;-5.676;2023-04-30T02:59:00;102164.19;;;15.59;100.00
71638;BME280;59485;43.542;-5.676;2023-04-30T03:01:26;102160.44;;;15.52;100.00
71638;BME280;59485;43.542;-5.676;2023-04-30T03:03:51;102168.22;;;15.48;100.00
71638;BME280;59485;43.542;-5.676;2023-04-30T03:06:17;102161.75;;;15.41;100.00
71638;BME280;59485;43.542;-5.676;2023-04-30T03:08:43;102171.31;;;15.53;100.00
71638;BME280;59485;43.542;-5.676;2023-04-30T03:11:09;102179.03;;;15.58;100.00
71638;BME280;59485;43.542;-5.676;2023-04-30T03:13:34;102175.97;;;15.53;100.00
71638;BME280;59485;43.542;-5.676;2023-04-30T03:16:01;102165.19;;;15.43;100.00
71638;BME280;59485;43.542;-5.676;2023-04-30T03:18:29;102169.00;;;15.42;100.00
71638;BME280;59485;43.542;-5.676;2023-04-30T03:20:55;102157.44;;;15.24;100.00
71638;BME280;59485;43.542;-5.676;2023-04-30T03:23:20;102167.06;;;15.28;100.00
71638;BME280;59485;43.542;-5.676;2023-04-30T03:25:46;102172.69;;;15.34;100.00
71638;BME280;59485;43.542;-5.676;2023-04-30T03:28:12;102156.88;;;15.28;100.00
71638;BME280;59485;43.542;-5.676;2023-04-30T03:30:39;102168.78;;;15.29;100.00
71638;BME280;59485;43.542;-5.676;2023-04-30T03:33:05;102175.19;;;15.29;100.00
71638;BME280;59485;43.542;-5.676;2023-04-30T03:35:31;102182.03;;;15.33;100.00
71638;BME280;59485;43.542;-5.676;2023-04-30T03:38:01;102177.84;;;15.37;100.00
71638;BME280;59485;43.542;-5.676;2023-04-30T03:40:26;102161.81;;;15.18;100.00
71638;BME280;59485;43.542;-5.676;2023-04-30T03:42:52;102176.81;;;15.38;100.00
71638;BME280;59485;43.542;-5.676;2023-04-30T03:45:18;102169.66;;;15.29;100.00
71638;BME280;59485;43.542;-5.676;2023-04-30T03:47:43;102162.50;;;15.35;100.00
71638;BME280;59485;43.542;-5.676;2023-04-30T03:50:09;102152.00;;;15.30;100.00
71638;BME280;59485;43.542;-5.676;2023-04-30T03:52:35;102184.97;;;15.32;100.00
71638;BME280;59485;43.542;-5.676;2023-04-30T03:55:05;102172.34;;;15.15;100.00
71638;BME280;59485;43.542;-5.676;2023-04-30T03:57:31;102195.50;;;15.14;100.00
71638;BME280;59485;43.542;-5.676;2023-04-30T03:59:57;102180.59;;;15.00;100.00
71638;BME280;59485;43.542;-5.676;2023-04-30T04:02:24;102176.94;;;14.85;100.00
71638;BME280;59485;43.542;-5.676;2023-04-30T04:04:50;102201.94;;;15.06;100.00
71638;BME280;59485;43.542;-5.676;2023-04-30T04:07:16;102207.03;;;14.94;100.00
71638;BME280;59485;43.542;-5.676;2023-04-30T04:09:42;102201.72;;;14.93;100.00
71638;BME280;59485;43.542;-5.676;2023-04-30T04:12:07;102203.75;;;14.99;100.00
71638;BME280;59485;43.542;-5.676;2023-04-30T04:14:33;102190.53;;;14.86;100.00
71638;BME280;59485;43.542;-5.676;2023-04-30T04:16:59;102185.22;;;14.85;100.00
71638;BME280;59485;43.542;-5.676;2023-04-30T04:19:26;102189.81;;;14.92;100.00
71638;BME280;59485;43.542;-5.676;2023-04-30T04:21:51;102183.56;;;14.76;100.00
71638;BME280;59485;43.542;-5.676;2023-04-30T04:24:17;102183.00;;;14.80;100.00
71638;BME280;59485;43.542;-5.676;2023-04-30T04:26:43;102173.91;;;14.72;100.00
71638;BME280;59485;43.542;-5.676;2023-04-30T04:29:09;102201.91;;;14.91;100.00
71638;BME280;59485;43.542;-5.676;2023-04-30T04:31:35;102156.31;;;14.73;100.00
71638;BME280;59485;43.542;-5.676;2023-04-30T04:34:02;102149.44;;;14.69;100.00
71638;BME280;59485;43.542;-5.676;2023-04-30T04:36:29;102183.44;;;14.92;100.00
71638;BME280;59485;43.542;-5.676;2023-04-30T04:38:57;102167.28;;;14.81;100.00
71638;BME280;59485;43.542;-5.676;2023-04-30T04:41:30;102180.97;;;14.97;100.00
71638;BME280;59485;43.542;-5.676;2023-04-30T04:43:57;102178.59;;;14.94;100.00
71638;BME280;59485;43.542;-5.676;2023-04-30T04:46:24;102170.66;;;14.91;100.00
71638;BME280;59485;43.542;-5.676;2023-04-30T04:48:50;102175.44;;;14.97;100.00
71638;BME280;59485;43.542;-5.676;2023-04-30T04:51:15;102173.88;;;15.02;100.00
71638;BME280;59485;43.542;-5.676;2023-04-30T04:53:41;102171.97;;;15.03;100.00
71638;BME280;59485;43.542;-5.676;2023-04-30T04:56:06;102158.88;;;14.97;100.00
71638;BME280;59485;43.542;-5.676;2023-04-30T04:58:33;102157.34;;;14.94;100.00
71638;BME280;59485;43.542;-5.676;2023-04-30T05:00:59;102179.00;;;15.06;100.00
71638;BME280;59485;43.542;-5.676;2023-04-30T05:03:30;102162.59;;;15.04;100.00
71638;BME280;59485;43.542;-5.676;2023-04-30T05:05:58;102178.63;;;15.09;100.00
71638;BME280;59485;43.542;-5.676;2023-04-30T05:08:23;102163.00;;;15.01;100.00
71638;BME280;59485;43.542;-5.676;2023-04-30T05:10:49;102170.34;;;15.09;100.00
71638;BME280;59485;43.542;-5.676;2023-04-30T05:13:14;102167.75;;;15.07;100.00
71638;BME280;59485;43.542;-5.676;2023-04-30T05:15:40;102170.34;;;15.09;100.00
71638;BME280;59485;43.542;-5.676;2023-04-30T05:18:05;102149.91;;;14.95;100.00
71638;BME280;59485;43.542;-5.676;2023-04-30T05:20:31;102172.44;;;15.07;100.00
71638;BME280;59485;43.542;-5.676;2023-04-30T05:22:56;102162.81;;;15.02;100.00
71638;BME280;59485;43.542;-5.676;2023-04-30T05:25:22;102168.63;;;15.08;100.00
71638;BME280;59485;43.542;-5.676;2023-04-30T05:27:48;102164.50;;;15.03;100.00
71638;BME280;59485;43.542;-5.676;2023-04-30T05:30:13;102169.63;;;14.92;100.00
71638;BME280;59485;43.542;-5.676;2023-04-30T05:32:42;102175.09;;;15.00;100.00
71638;BME280;59485;43.542;-5.676;2023-04-30T05:35:08;102166.88;;;14.92;100.00
71638;BME280;59485;43.542;-5.676;2023-04-30T05:37:34;102167.34;;;14.95;100.00
71638;BME280;59485;43.542;-5.676;2023-04-30T05:39:59;102178.19;;;14.97;100.00
71638;BME280;59485;43.542;-5.676;2023-04-30T05:42:25;102171.13;;;14.94;100.00
71638;BME280;59485;43.542;-5.676;2023-04-30T05:44:50;102177.84;;;15.00;100.00
71638;BME280;59485;43.542;-5.676;2023-04-30T05:47:16;102185.78;;;15.03;100.00
71638;BME280;59485;43.542;-5.676;2023-04-30T05:49:42;102186.59;;;15.03;100.00
71638;BME280;59485;43.542;-5.676;2023-04-30T05:52:07;102181.28;;;15.02;100.00
71638;BME280;59485;43.542;-5.676;2023-04-30T05:54:33;102179.00;;;15.06;100.00
71638;BME280;59485;43.542;-5.676;2023-04-30T05:56:58;102177.94;;;15.07;100.00
71638;BME280;59485;43.542;-5.676;2023-04-30T05:59:24;102169.38;;;15.01;100.00
71638;BME280;59485;43.542;-5.676;2023-04-30T06:01:50;102195.91;;;15.25;100.00
71638;BME280;59485;43.542;-5.676;2023-04-30T06:04:16;102187.81;;;15.24;100.00
71638;BME280;59485;43.542;-5.676;2023-04-30T06:06:41;102185.22;;;15.22;100.00
71638;BME280;59485;43.542;-5.676;2023-04-30T06:09:07;102190.91;;;15.29;100.00
71638;BME280;59485;43.542;-5.676;2023-04-30T06:11:33;102193.22;;;15.17;100.00
71638;BME280;59485;43.542;-5.676;2023-04-30T06:13:58;102187.34;;;15.20;100.00
71638;BME280;59485;43.542;-5.676;2023-04-30T06:16:24;102196.69;;;15.34;100.00
71638;BME280;59485;43.542;-5.676;2023-04-30T06:18:50;102174.19;;;15.22;100.00
71638;BME280;59485;43.542;-5.676;2023-04-30T06:21:15;102181.34;;;15.31;100.00
71638;BME280;59485;43.542;-5.676;2023-04-30T06:23:41;102182.03;;;15.33;100.00
71638;BME280;59485;43.542;-5.676;2023-04-30T06:26:06;102200.06;;;15.44;100.00
71638;BME280;59485;43.542;-5.676;2023-04-30T06:28:32;102186.16;;;15.37;100.00
71638;BME280;59485;43.542;-5.676;2023-04-30T06:30:58;102184.03;;;15.39;100.00
71638;BME280;59485;43.542;-5.676;2023-04-30T06:33:23;102188.50;;;15.40;100.00
71638;BME280;59485;43.542;-5.676;2023-04-30T06:35:49;102187.28;;;15.43;100.00
71638;BME280;59485;43.542;-5.676;2023-04-30T06:38:19;102205.69;;;15.51;100.00
71638;BME280;59485;43.542;-5.676;2023-04-30T06:40:45;102194.31;;;15.54;100.00
71638;BME280;59485;43.542;-5.676;2023-04-30T06:43:11;102193.09;;;15.56;100.00
71638;BME280;59485;43.542;-5.676;2023-04-30T06:45:37;102191.81;;;15.59;100.00
71638;BME280;59485;43.542;-5.676;2023-04-30T06:48:03;102188.31;;;15.65;100.00
71638;BME280;59485;43.542;-5.676;2023-04-30T06:50:28;102189.81;;;15.67;100.00
71638;BME280;59485;43.542;-5.676;2023-04-30T06:52:54;102180.97;;;15.72;100.00
71638;BME280;59485;43.542;-5.676;2023-04-30T06:55:20;102202.63;;;15.83;100.00
71638;BME280;59485;43.542;-5.676;2023-04-30T06:57:46;102208.94;;;15.92;100.00
71638;BME280;59485;43.542;-5.676;2023-04-30T07:00:12;102200.31;;;15.87;100.00
71638;BME280;59485;43.542;-5.676;2023-04-30T07:02:39;102223.97;;;16.04;100.00
71638;BME280;59485;43.542;-5.676;2023-04-30T07:05:05;102216.34;;;16.06;100.00
71638;BME280;59485;43.542;-5.676;2023-04-30T07:07:31;102209.59;;;16.08;100.00
71638;BME280;59485;43.542;-5.676;2023-04-30T07:09:56;102209.59;;;16.08;100.00
71638;BME280;59485;43.542;-5.676;2023-04-30T07:12:22;102217.59;;;16.18;100.00
71638;BME280;59485;43.542;-5.676;2023-04-30T07:14:48;102210.72;;;16.14;100.00
71638;BME280;59485;43.542;-5.676;2023-04-30T07:17:13;102216.03;;;16.30;100.00
71638;BME280;59485;43.542;-5.676;2023-04-30T07:19:39;102207.00;;;16.36;100.00
71638;BME280;59485;43.542;-5.676;2023-04-30T07:22:04;102187.72;;;16.28;100.00
71638;BME280;59485;43.542;-5.676;2023-04-30T07:24:30;102198.00;;;16.34;100.00
71638;BME280;59485;43.542;-5.676;2023-04-30T07:26:55;102211.44;;;16.52;100.00
71638;BME280;59485;43.542;-5.676;2023-04-30T07:29:21;102197.59;;;16.52;100.00
71638;BME280;59485;43.542;-5.676;2023-04-30T07:31:46;102205.09;;;16.58;100.00
71638;BME280;59485;43.542;-5.676;2023-04-30T07:34:12;102197.22;;;16.40;100.00
71638;BME280;59485;43.542;-5.676;2023-04-30T07:36:38;102198.03;;;16.56;100.00
71638;BME280;59485;43.542;-5.676;2023-04-30T07:39:04;102221.94;;;16.71;100.00
71638;BME280;59485;43.542;-5.676;2023-04-30T07:41:30;102219.34;;;16.70;100.00
71638;BME280;59485;43.542;-5.676;2023-04-30T07:43:56;102218.56;;;16.76;100.00
71638;BME280;59485;43.542;-5.676;2023-04-30T07:46:22;102204.91;;;16.74;100.00
71638;BME280;59485;43.542;-5.676;2023-04-30T07:48:51;102205.44;;;16.84;100.00
71638;BME280;59485;43.542;-5.676;2023-04-30T07:51:17;102205.50;;;16.91;100.00
71638;BME280;59485;43.542;-5.676;2023-04-30T07:53:42;102194.66;;;16.90;100.00
71638;BME280;59485;43.542;-5.676;2023-04-30T07:56:08;102193.97;;;16.87;100.00
71638;BME280;59485;43.542;-5.676;2023-04-30T07:58:34;102204.19;;;16.87;100.00
71638;BME280;59485;43.542;-5.676;2023-04-30T08:00:59;102203.47;;;16.78;100.00
71638;BME280;59485;43.542;-5.676;2023-04-30T08:03:25;102204.59;;;16.84;100.00
71638;BME280;59485;43.542;-5.676;2023-04-30T08:05:51;102188.16;;;16.82;100.00
71638;BME280;59485;43.542;-5.676;2023-04-30T08:08:17;102206.81;;;16.74;100.00
71638;BME280;59485;43.542;-5.676;2023-04-30T08:10:42;102222.59;;;16.95;100.00
71638;BME280;59485;43.542;-5.676;2023-04-30T08:13:08;102217.78;;;17.03;100.00
71638;BME280;59485;43.542;-5.676;2023-04-30T08:15:34;102200.59;;;17.08;100.00
71638;BME280;59485;43.542;-5.676;2023-04-30T08:17:59;102211.44;;;17.31;100.00
71638;BME280;59485;43.542;-5.676;2023-04-30T08:20:25;102227.34;;;17.43;100.00
71638;BME280;59485;43.542;-5.676;2023-04-30T08:22:52;102226.53;;;17.49;100.00
71638;BME280;59485;43.542;-5.676;2023-04-30T08:25:17;102234.59;;;17.44;100.00
71638;BME280;59485;43.542;-5.676;2023-04-30T08:27:43;102213.03;;;17.18;100.00
71638;BME280;59485;43.542;-5.676;2023-04-30T08:30:08;102228.53;;;17.34;100.00
71638;BME280;59485;43.542;-5.676;2023-04-30T08:32:34;102219.28;;;17.27;100.00
71638;BME280;59485;43.542;-5.676;2023-04-30T08:35:03;102229.19;;;17.36;100.00
71638;BME280;59485;43.542;-5.676;2023-04-30T08:37:29;102216.66;;;17.19;100.00
71638;BME280;59485;43.542;-5.676;2023-04-30T08:39:55;102212.78;;;17.13;100.00
71638;BME280;59485;43.542;-5.676;2023-04-30T08:42:24;102225.00;;;17.47;100.00
71638;BME280;59485;43.542;-5.676;2023-04-30T08:44:50;102216.41;;;17.35;100.00
71638;BME280;59485;43.542;-5.676;2023-04-30T08:47:16;102217.03;;;17.37;100.00
71638;BME280;59485;43.542;-5.676;2023-04-30T08:49:42;102214.13;;;17.45;100.00
71638;BME280;59485;43.542;-5.676;2023-04-30T08:52:09;102221.84;;;17.50;100.00
71638;BME280;59485;43.542;-5.676;2023-04-30T08:54:35;102224.09;;;17.61;100.00
71638;BME280;59485;43.542;-5.676;2023-04-30T08:57:01;102217.94;;;17.66;100.00
71638;BME280;59485;43.542;-5.676;2023-04-30T08:59:27;102182.53;;;17.40;100.00
71638;BME280;59485;43.542;-5.676;2023-04-30T09:01:53;102230.00;;;17.79;100.00
71638;BME280;59485;43.542;-5.676;2023-04-30T09:04:18;102222.63;;;17.93;100.00
71638;BME280;59485;43.542;-5.676;2023-04-30T09:06:44;102217.03;;;17.86;100.00
71638;BME280;59485;43.542;-5.676;2023-04-30T09:09:12;102220.25;;;17.90;100.00
71638;BME280;59485;43.542;-5.676;2023-04-30T09:11:38;102234.03;;;17.77;100.00
71638;BME280;59485;43.542;-5.676;2023-04-30T09:14:04;102223.81;;;17.77;100.00
71638;BME280;59485;43.542;-5.676;2023-04-30T09:16:46;102227.44;;;17.56;100.00
71638;BME280;59485;43.542;-5.676;2023-04-30T09:19:25;102231.19;;;17.42;100.00
71638;BME280;59485;43.542;-5.676;2023-04-30T09:21:51;102214.06;;;17.39;100.00
71638;BME280;59485;43.542;-5.676;2023-04-30T09:24:16;102218.22;;;17.28;100.00
71638;BME280;59485;43.542;-5.676;2023-04-30T09:26:42;102246.44;;;17.32;100.00
71638;BME280;59485;43.542;-5.676;2023-04-30T09:29:08;102245.94;;;17.28;100.00
71638;BME280;59485;43.542;-5.676;2023-04-30T09:31:40;102251.16;;;17.38;100.00
71638;BME280;59485;43.542;-5.676;2023-04-30T09:34:06;102252.16;;;17.30;100.00
71638;BME280;59485;43.542;-5.676;2023-04-30T09:36:32;102253.03;;;17.31;100.00
71638;BME280;59485;43.542;-5.676;2023-04-30T09:39:11;102250.56;;;17.21;100.00
71638;BME280;59485;43.542;-5.676;2023-04-30T09:41:38;102252.38;;;17.07;100.00
71638;BME280;59485;43.542;-5.676;2023-04-30T09:44:04;102256.25;;;17.13;100.00
71638;BME280;59485;43.542;-5.676;2023-04-30T09:46:31;102258.75;;;16.86;100.00
71638;BME280;59485;43.542;-5.676;2023-04-30T09:48:58;102253.56;;;16.83;100.00
71638;BME280;59485;43.542;-5.676;2023-04-30T09:51:24;102270.75;;;16.94;100.00
71638;BME280;59485;43.542;-5.676;2023-04-30T09:53:54;102269.03;;;16.93;100.00
71638;BME280;59485;43.542;-5.676;2023-04-30T09:56:23;102253.19;;;16.86;100.00
71638;BME280;59485;43.542;-5.676;2023-04-30T09:58:50;102279.66;;;17.10;100.00
71638;BME280;59485;43.542;-5.676;2023-04-30T10:01:20;102279.53;;;17.18;100.00
71638;BME280;59485;43.542;-5.676;2023-04-30T10:03:47;102280.63;;;17.17;100.00
71638;BME280;59485;43.542;-5.676;2023-04-30T10:06:13;102274.72;;;17.27;100.00
71638;BME280;59485;43.542;-5.676;2023-04-30T10:08:46;102260.66;;;17.29;100.00
71638;BME280;59485;43.542;-5.676;2023-04-30T10:11:17;102270.31;;;17.33;100.00
71638;BME280;59485;43.542;-5.676;2023-04-30T10:13:58;102265.88;;;17.38;100.00
71638;BME280;59485;43.542;-5.676;2023-04-30T10:19:14;102269.19;;;17.48;100.00
71638;BME280;59485;43.542;-5.676;2023-04-30T10:21:44;102260.88;;;17.48;100.00
71638;BME280;59485;43.542;-5.676;2023-04-30T10:24:13;102265.41;;;17.56;100.00
71638;BME280;59485;43.542;-5.676;2023-04-30T10:26:40;102261.78;;;17.55;100.00
71638;BME280;59485;43.542;-5.676;2023-04-30T10:29:06;102256.59;;;17.67;100.00
71638;BME280;59485;43.542;-5.676;2023-04-30T10:31:32;102237.63;;;17.49;100.00
71638;BME280;59485;43.542;-5.676;2023-04-30T10:34:24;102258.16;;;17.76;100.00
71638;BME280;59485;43.542;-5.676;2023-04-30T10:36:58;102248.91;;;17.69;100.00
71638;BME280;59485;43.542;-5.676;2023-04-30T10:39:28;102252.56;;;17.70;100.00
71638;BME280;59485;43.542;-5.676;2023-04-30T10:42:04;102271.91;;;17.91;100.00
71638;BME280;59485;43.542;-5.676;2023-04-30T10:44:35;102247.53;;;17.80;100.00
71638;BME280;59485;43.542;-5.676;2023-04-30T10:47:02;102262.53;;;17.92;100.00
71638;BME280;59485;43.542;-5.676;2023-04-30T10:49:28;102261.31;;;18.01;100.00
71638;BME280;59485;43.542;-5.676;2023-04-30T10:51:54;102226.63;;;17.84;100.00
71638;BME280;59485;43.542;-5.676;2023-04-30T10:54:27;102249.19;;;17.81;100.00
71638;BME280;59485;43.542;-5.676;2023-04-30T10:57:15;102257.53;;;17.81;100.00
71638;BME280;59485;43.542;-5.676;2023-04-30T10:59:52;102251.84;;;17.89;100.00
71638;BME280;59485;43.542;-5.676;2023-04-30T11:02:18;102249.88;;;17.83;100.00
71638;BME280;59485;43.542;-5.676;2023-04-30T11:07:32;102244.03;;;17.71;100.00
71638;BME280;59485;43.542;-5.676;2023-04-30T11:09:59;102240.84;;;17.74;100.00
71638;BME280;59485;43.542;-5.676;2023-04-30T11:12:26;102251.06;;;17.74;100.00
71638;BME280;59485;43.542;-5.676;2023-04-30T11:15:13;102246.66;;;17.79;100.00
71638;BME280;59485;43.542;-5.676;2023-04-30T11:17:39;102249.66;;;17.84;100.00
71638;BME280;59485;43.542;-5.676;2023-04-30T11:20:05;102239.75;;;17.69;100.00
71638;BME280;59485;43.542;-5.676;2023-04-30T11:22:31;102244.22;;;17.70;100.00
71638;BME280;59485;43.542;-5.676;2023-04-30T11:25:09;102235.13;;;17.82;100.00
71638;BME280;59485;43.542;-5.676;2023-04-30T11:27:37;102202.75;;;17.61;100.00
71638;BME280;59485;43.542;-5.676;2023-04-30T11:30:12;102236.06;;;17.89;100.00
71638;BME280;59485;43.542;-5.676;2023-04-30T11:32:41;102224.47;;;17.79;100.00
71638;BME280;59485;43.542;-5.676;2023-04-30T11:35:08;102226.44;;;17.92;100.00
71638;BME280;59485;43.542;-5.676;2023-04-30T11:37:38;102232.91;;;17.99;100.00
71638;BME280;59485;43.542;-5.676;2023-04-30T11:40:08;102220.16;;;17.77;100.00
71638;BME280;59485;43.542;-5.676;2023-04-30T11:42:36;102227.47;;;17.84;100.00
71638;BME280;59485;43.542;-5.676;2023-04-30T11:45:08;102223.44;;;17.87;100.00
71638;BME280;59485;43.542;-5.676;2023-04-30T11:47:47;102208.19;;;17.70;100.00
71638;BME280;59485;43.542;-5.676;2023-04-30T11:50:18;102212.25;;;17.74;100.00
71638;BME280;59485;43.542;-5.676;2023-04-30T11:52:50;102207.97;;;17.71;100.00
71638;BME280;59485;43.542;-5.676;2023-04-30T11:55:21;102204.72;;;17.95;100.00
71638;BME280;59485;43.542;-5.676;2023-04-30T11:57:49;102212.53;;;17.85;100.00
71638;BME280;59485;43.542;-5.676;2023-04-30T12:00:17;102190.66;;;17.97;100.00
71638;BME280;59485;43.542;-5.676;2023-04-30T12:02:44;102192.75;;;17.95;100.00
71638;BME280;59485;43.542;-5.676;2023-04-30T12:05:14;102190.00;;;17.95;100.00
71638;BME280;59485;43.542;-5.676;2023-04-30T12:07:47;102187.22;;;17.95;100.00
71638;BME280;59485;43.542;-5.676;2023-04-30T12:10:13;102188.03;;;17.89;100.00
71638;BME280;59485;43.542;-5.676;2023-04-30T12:12:41;102181.06;;;17.72;100.00
71638;BME280;59485;43.542;-5.676;2023-04-30T12:15:25;102177.94;;;17.81;100.00
71638;BME280;59485;43.542;-5.676;2023-04-30T12:18:11;102191.00;;;17.87;100.00
71638;BME280;59485;43.542;-5.676;2023-04-30T12:20:38;102186.53;;;17.86;100.00
71638;BME280;59485;43.542;-5.676;2023-04-30T12:23:05;102175.06;;;17.96;100.00
71638;BME280;59485;43.542;-5.676;2023-04-30T12:25:39;102170.75;;;17.93;100.00
71638;BME280;59485;43.542;-5.676;2023-04-30T12:28:05;102164.84;;;18.03;100.00
71638;BME280;59485;43.542;-5.676;2023-04-30T12:30:30;102161.78;;;17.91;100.00
71638;BME280;59485;43.542;-5.676;2023-04-30T12:32:58;102156.44;;;17.90;100.00
71638;BME280;59485;43.542;-5.676;2023-04-30T12:35:26;102167.09;;;17.86;100.00
71638;BME280;59485;43.542;-5.676;2023-04-30T12:38:00;102152.28;;;17.73;100.00
71638;BME280;59485;43.542;-5.676;2023-04-30T12:40:26;102173.06;;;17.90;100.00
71638;BME280;59485;43.542;-5.676;2023-04-30T12:43:08;102143.38;;;17.84;100.00
71638;BME280;59485;43.542;-5.676;2023-04-30T12:45:53;102166.31;;;17.99;100.00
71638;BME280;59485;43.542;-5.676;2023-04-30T12:48:22;102166.84;;;18.16;100.00
71638;BME280;59485;43.542;-5.676;2023-04-30T12:53:17;102158.97;;;17.85;100.00
71638;BME280;59485;43.542;-5.676;2023-04-30T12:55:42;102171.13;;;17.84;100.00